sensor_id;sensor_type;location;lat;lon;timestamp;temperature;humidity
64111;DHT22;50401;48.188;11.566;2023-11-22T00:01:51;8.45;88.56
64111;DHT22;50401;48.188;11.566;2023-11-22T00:04:16;8.46;88.55
64111;DHT22;50401;48.188;11.566;2023-11-22T00:06:43;8.46;88.63
64111;DHT22;50401;48.188;11.566;2023-11-22T00:09:08;8.43;88.31
64111;DHT22;50401;48.188;11.566;2023-11-22T00:11:35;8.37;88.53
64111;DHT22;50401;48.188;11.566;2023-11-22T00:14:00;8.39;88.67
64111;DHT22;50401;48.188;11.566;2023-11-22T00:16:25;8.37;88.60
64111;DHT22;50401;48.188;11.566;2023-11-22T00:18:51;8.36;88.69
64111;DHT22;50401;48.188;11.566;2023-11-22T00:21:16;8.36;88.76
64111;DHT22;50401;48.188;11.566;2023-11-22T00:23:41;8.36;88.70
64111;DHT22;50401;48.188;11.566;2023-11-22T00:26:08;8.36;88.71
64111;DHT22;50401;48.188;11.566;2023-11-22T00:28:33;8.36;88.69
64111;DHT22;50401;48.188;11.566;2023-11-22T00:30:59;8.36;88.67
64111;DHT22;50401;48.188;11.566;2023-11-22T00:33:25;8.37;88.48
64111;DHT22;50401;48.188;11.566;2023-11-22T00:35:51;8.36;88.38
64111;DHT22;50401;48.188;11.566;2023-11-22T00:38:18;8.33;88.40
64111;DHT22;50401;48.188;11.566;2023-11-22T00:40:44;8.29;88.60
64111;DHT22;50401;48.188;11.566;2023-11-22T00:43:09;8.30;88.68
64111;DHT22;50401;48.188;11.566;2023-11-22T00:45:34;8.25;88.48
64111;DHT22;50401;48.188;11.566;2023-11-22T00:48:00;8.28;88.22
64111;DHT22;50401;48.188;11.566;2023-11-22T00:50:25;8.22;88.03
64111;DHT22;50401;48.188;11.566;2023-11-22T00:52:51;8.16;87.81
64111;DHT22;50401;48.188;11.566;2023-11-22T00:55:16;8.13;87.74
64111;DHT22;50401;48.188;11.566;2023-11-22T00:57:42;8.19;87.52
64111;DHT22;50401;48.188;11.566;2023-11-22T01:00:08;8.16;87.73
64111;DHT22;50401;48.188;11.566;2023-11-22T01:02:35;8.18;87.73
64111;DHT22;50401;48.188;11.566;2023-11-22T01:05:09;8.16;87.50
64111;DHT22;50401;48.188;11.566;2023-11-22T01:07:36;8.15;87.49
64111;DHT22;50401;48.188;11.566;2023-11-22T01:10:01;8.11;87.66
64111;DHT22;50401;48.188;11.566;2023-11-22T01:12:26;8.09;87.78
64111;DHT22;50401;48.188;11.566;2023-11-22T01:14:52;8.05;87.76
64111;DHT22;50401;48.188;11.566;2023-11-22T01:17:17;8.11;87.91
64111;DHT22;50401;48.188;11.566;2023-11-22T01:19:42;8.12;87.89
64111;DHT22;50401;48.188;11.566;2023-11-22T01:22:08;8.18;87.77
64111;DHT22;50401;48.188;11.566;2023-11-22T01:24:34;8.19;87.77
64111;DHT22;50401;48.188;11.566;2023-11-22T01:26:59;8.18;87.42
64111;DHT22;50401;48.188;11.566;2023-11-22T01:29:25;8.15;87.56
64111;DHT22;50401;48.188;11.566;2023-11-22T01:31:51;8.13;87.44
64111;DHT22;50401;48.188;11.566;2023-11-22T01:34:17;8.24;87.31
64111;DHT22;50401;48.188;11.566;2023-11-22T01:36:42;8.24;87.36
64111;DHT22;50401;48.188;11.566;2023-11-22T01:39:08;8.21;87.38
64111;DHT22;50401;48.188;11.566;2023-11-22T01:41:34;8.11;87.44
64111;DHT22;50401;48.188;11.566;2023-11-22T01:43:59;8.13;87.52
64111;DHT22;50401;48.188;11.566;2023-11-22T01:46:25;8.11;87.60
64111;DHT22;50401;48.188;11.566;2023-11-22T01:48:51;8.09;87.60
64111;DHT22;50401;48.188;11.566;2023-11-22T01:51:23;8.08;87.70
64111;DHT22;50401;48.188;11.566;2023-11-22T01:53:51;8.05;87.66
64111;DHT22;50401;48.188;11.566;2023-11-22T01:56:20;7.87;86.61
64111;DHT22;50401;48.188;11.566;2023-11-22T01:58:45;7.49;85.57
64111;DHT22;50401;48.188;11.566;2023-11-22T02:01:12;7.17;84.86
64111;DHT22;50401;48.188;11.566;2023-11-22T02:03:38;6.69;84.24
64111;DHT22;50401;48.188;11.566;2023-11-22T02:06:04;6.44;83.68
64111;DHT22;50401;48.188;11.566;2023-11-22T02:08:30;6.25;83.65
64111;DHT22;50401;48.188;11.566;2023-11-22T02:11:00;6.04;83.82
64111;DHT22;50401;48.188;11.566;2023-11-22T02:13:28;6.07;83.91
64111;DHT22;50401;48.188;11.566;2023-11-22T02:15:54;6.16;84.01
64111;DHT22;50401;48.188;11.566;2023-11-22T02:18:22;6.21;83.40
64111;DHT22;50401;48.188;11.566;2023-11-22T02:20:48;6.10;82.58
64111;DHT22;50401;48.188;11.566;2023-11-22T02:23:14;6.00;82.89
64111;DHT22;50401;48.188;11.566;2023-11-22T02:25:39;5.89;83.40
64111;DHT22;50401;48.188;11.566;2023-11-22T02:28:05;5.78;82.84
64111;DHT22;50401;48.188;11.566;2023-11-22T02:30:30;5.66;82.82
64111;DHT22;50401;48.188;11.566;2023-11-22T02:32:56;5.47;82.37
64111;DHT22;50401;48.188;11.566;2023-11-22T02:35:22;5.41;82.21
64111;DHT22;50401;48.188;11.566;2023-11-22T02:37:47;5.51;82.59
64111;DHT22;50401;48.188;11.566;2023-11-22T02:40:17;5.48;82.12
64111;DHT22;50401;48.188;11.566;2023-11-22T02:42:44;5.44;81.05
64111;DHT22;50401;48.188;11.566;2023-11-22T02:45:09;5.52;81.21
64111;DHT22;50401;48.188;11.566;2023-11-22T02:47:35;5.45;81.03
64111;DHT22;50401;48.188;11.566;2023-11-22T02:50:03;5.38;80.76
64111;DHT22;50401;48.188;11.566;2023-11-22T02:52:30;5.38;80.96
64111;DHT22;50401;48.188;11.566;2023-11-22T02:54:56;5.44;80.88
64111;DHT22;50401;48.188;11.566;2023-11-22T02:57:21;5.51;80.49
64111;DHT22;50401;48.188;11.566;2023-11-22T02:59:46;5.56;80.87
64111;DHT22;50401;48.188;11.566;2023-11-22T03:02:12;5.51;80.76
64111;DHT22;50401;48.188;11.566;2023-11-22T03:04:37;5.55;80.83
64111;DHT22;50401;48.188;11.566;2023-11-22T03:07:03;5.41;80.38
64111;DHT22;50401;48.188;11.566;2023-11-22T03:09:31;5.31;80.77
64111;DHT22;50401;48.188;11.566;2023-11-22T03:11:57;5.23;80.84
64111;DHT22;50401;48.188;11.566;2023-11-22T03:14:22;5.24;81.69
64111;DHT22;50401;48.188;11.566;2023-11-22T03:16:47;5.19;81.73
64111;DHT22;50401;48.188;11.566;2023-11-22T03:19:13;5.18;81.75
64111;DHT22;50401;48.188;11.566;2023-11-22T03:21:39;5.26;81.73
64111;DHT22;50401;48.188;11.566;2023-11-22T03:24:09;5.38;81.71
64111;DHT22;50401;48.188;11.566;2023-11-22T03:26:34;5.44;81.40
64111;DHT22;50401;48.188;11.566;2023-11-22T03:29:00;5.45;81.56
64111;DHT22;50401;48.188;11.566;2023-11-22T03:31:26;5.41;81.47
64111;DHT22;50401;48.188;11.566;2023-11-22T03:33:51;5.38;81.32
64111;DHT22;50401;48.188;11.566;2023-11-22T03:36:17;5.37;81.39
64111;DHT22;50401;48.188;11.566;2023-11-22T03:38:42;5.40;81.31
64111;DHT22;50401;48.188;11.566;2023-11-22T03:41:08;5.36;81.54
64111;DHT22;50401;48.188;11.566;2023-11-22T03:43:34;5.44;81.45
64111;DHT22;50401;48.188;11.566;2023-11-22T03:45:59;5.45;81.45
64111;DHT22;50401;48.188;11.566;2023-11-22T03:48:24;5.58;81.56
64111;DHT22;50401;48.188;11.566;2023-11-22T03:50:51;5.62;81.11
64111;DHT22;50401;48.188;11.566;2023-11-22T03:53:16;5.58;80.78
64111;DHT22;50401;48.188;11.566;2023-11-22T03:55:42;5.65;81.10
64111;DHT22;50401;48.188;11.566;2023-11-22T03:58:07;5.48;81.43
64111;DHT22;50401;48.188;11.566;2023-11-22T04:00:33;5.58;81.58
64111;DHT22;50401;48.188;11.566;2023-11-22T04:02:58;5.66;81.40
64111;DHT22;50401;48.188;11.566;2023-11-22T04:05:26;5.65;80.94
64111;DHT22;50401;48.188;11.566;2023-11-22T04:07:52;5.61;80.90
64111;DHT22;50401;48.188;11.566;2023-11-22T04:10:17;5.68;80.74
64111;DHT22;50401;48.188;11.566;2023-11-22T04:12:44;5.72;80.88
64111;DHT22;50401;48.188;11.566;2023-11-22T04:15:10;5.75;80.78
64111;DHT22;50401;48.188;11.566;2023-11-22T04:17:35;5.68;80.08
64111;DHT22;50401;48.188;11.566;2023-11-22T04:20:04;5.65;79.57
64111;DHT22;50401;48.188;11.566;2023-11-22T04:22:34;5.55;80.18
64111;DHT22;50401;48.188;11.566;2023-11-22T04:24:59;5.62;79.89
64111;DHT22;50401;48.188;11.566;2023-11-22T04:27:24;5.69;79.60
64111;DHT22;50401;48.188;11.566;2023-11-22T04:29:50;5.61;79.47
64111;DHT22;50401;48.188;11.566;2023-11-22T04:32:15;5.54;79.26
64111;DHT22;50401;48.188;11.566;2023-11-22T04:34:40;5.48;79.83
64111;DHT22;50401;48.188;11.566;2023-11-22T04:37:06;5.51;80.55
64111;DHT22;50401;48.188;11.566;2023-11-22T04:39:31;5.56;80.15
64111;DHT22;50401;48.188;11.566;2023-11-22T04:41:57;5.56;79.55
64111;DHT22;50401;48.188;11.566;2023-11-22T04:44:22;5.59;79.46
64111;DHT22;50401;48.188;11.566;2023-11-22T04:46:47;5.54;78.49
64111;DHT22;50401;48.188;11.566;2023-11-22T04:49:13;5.45;78.44
64111;DHT22;50401;48.188;11.566;2023-11-22T04:51:38;5.38;78.49
64111;DHT22;50401;48.188;11.566;2023-11-22T04:54:04;5.41;78.61
64111;DHT22;50401;48.188;11.566;2023-11-22T04:56:29;5.40;79.06
64111;DHT22;50401;48.188;11.566;2023-11-22T04:58:54;5.36;79.50
64111;DHT22;50401;48.188;11.566;2023-11-22T05:01:20;5.34;79.68
64111;DHT22;50401;48.188;11.566;2023-11-22T05:03:45;5.37;80.05
64111;DHT22;50401;48.188;11.566;2023-11-22T05:06:10;5.51;80.55
64111;DHT22;50401;48.188;11.566;2023-11-22T05:08:36;5.65;80.24
64111;DHT22;50401;48.188;11.566;2023-11-22T05:11:01;5.68;80.23
64111;DHT22;50401;48.188;11.566;2023-11-22T05:13:28;5.76;80.53
64111;DHT22;50401;48.188;11.566;2023-11-22T05:15:54;5.75;80.33
64111;DHT22;50401;48.188;11.566;2023-11-22T05:18:20;5.79;80.22
64111;DHT22;50401;48.188;11.566;2023-11-22T05:20:46;5.75;79.42
64111;DHT22;50401;48.188;11.566;2023-11-22T05:23:13;5.68;78.91
64111;DHT22;50401;48.188;11.566;2023-11-22T05:25:39;5.56;78.43
64111;DHT22;50401;48.188;11.566;2023-11-22T05:28:04;5.44;78.21
64111;DHT22;50401;48.188;11.566;2023-11-22T05:30:29;5.48;78.21
64111;DHT22;50401;48.188;11.566;2023-11-22T05:32:55;5.50;78.71
64111;DHT22;50401;48.188;11.566;2023-11-22T05:35:21;5.51;78.35
64111;DHT22;50401;48.188;11.566;2023-11-22T05:37:47;5.43;77.69
64111;DHT22;50401;48.188;11.566;2023-11-22T05:40:12;5.43;78.37
64111;DHT22;50401;48.188;11.566;2023-11-22T05:42:38;5.38;78.34
64111;DHT22;50401;48.188;11.566;2023-11-22T05:45:04;5.47;78.47
64111;DHT22;50401;48.188;11.566;2023-11-22T05:47:31;5.34;78.17
64111;DHT22;50401;48.188;11.566;2023-11-22T05:49:56;5.28;78.31
64111;DHT22;50401;48.188;11.566;2023-11-22T05:52:21;5.24;78.60
64111;DHT22;50401;48.188;11.566;2023-11-22T05:54:48;5.24;78.62
64111;DHT22;50401;48.188;11.566;2023-11-22T05:57:14;5.24;78.70
64111;DHT22;50401;48.188;11.566;2023-11-22T05:59:40;5.36;79.25
64111;DHT22;50401;48.188;11.566;2023-11-22T06:02:05;5.38;78.99
64111;DHT22;50401;48.188;11.566;2023-11-22T06:04:31;5.38;78.52
64111;DHT22;50401;48.188;11.566;2023-11-22T06:06:56;5.37;78.84
64111;DHT22;50401;48.188;11.566;2023-11-22T06:09:21;5.37;78.73
64111;DHT22;50401;48.188;11.566;2023-11-22T06:11:48;5.34;79.36
64111;DHT22;50401;48.188;11.566;2023-11-22T06:14:14;5.36;79.07
64111;DHT22;50401;48.188;11.566;2023-11-22T06:16:39;5.26;78.75
64111;DHT22;50401;48.188;11.566;2023-11-22T06:19:04;5.20;79.02
64111;DHT22;50401;48.188;11.566;2023-11-22T06:21:30;5.19;78.73
64111;DHT22;50401;48.188;11.566;2023-11-22T06:23:55;5.30;82.04
64111;DHT22;50401;48.188;11.566;2023-11-22T06:26:23;5.43;80.73
64111;DHT22;50401;48.188;11.566;2023-11-22T06:28:49;5.33;78.73
64111;DHT22;50401;48.188;11.566;2023-11-22T06:31:14;5.27;78.77
64111;DHT22;50401;48.188;11.566;2023-11-22T06:33:40;5.31;78.85
64111;DHT22;50401;48.188;11.566;2023-11-22T06:36:05;5.30;79.10
64111;DHT22;50401;48.188;11.566;2023-11-22T06:38:31;5.26;79.33
64111;DHT22;50401;48.188;11.566;2023-11-22T06:40:56;5.26;79.26
64111;DHT22;50401;48.188;11.566;2023-11-22T06:43:21;5.13;79.43
64111;DHT22;50401;48.188;11.566;2023-11-22T06:45:48;5.16;79.62
64111;DHT22;50401;48.188;11.566;2023-11-22T06:48:13;5.15;79.35
64111;DHT22;50401;48.188;11.566;2023-11-22T06:50:38;5.08;79.22
64111;DHT22;50401;48.188;11.566;2023-11-22T06:53:04;5.09;79.64
64111;DHT22;50401;48.188;11.566;2023-11-22T06:55:31;5.05;79.50
64111;DHT22;50401;48.188;11.566;2023-11-22T06:57:58;5.09;79.42
64111;DHT22;50401;48.188;11.566;2023-11-22T07:00:23;5.13;79.98
64111;DHT22;50401;48.188;11.566;2023-11-22T07:02:48;5.12;79.77
64111;DHT22;50401;48.188;11.566;2023-11-22T07:05:14;5.12;79.62
64111;DHT22;50401;48.188;11.566;2023-11-22T07:07:39;5.13;79.98
64111;DHT22;50401;48.188;11.566;2023-11-22T07:10:05;5.27;79.90
64111;DHT22;50401;48.188;11.566;2023-11-22T07:12:34;5.40;79.48
64111;DHT22;50401;48.188;11.566;2023-11-22T07:15:00;5.40;79.84
64111;DHT22;50401;48.188;11.566;2023-11-22T07:17:26;5.38;79.30
64111;DHT22;50401;48.188;11.566;2023-11-22T07:19:52;5.44;79.06
64111;DHT22;50401;48.188;11.566;2023-11-22T07:22:18;5.43;79.15
64111;DHT22;50401;48.188;11.566;2023-11-22T07:24:48;5.45;79.31
64111;DHT22;50401;48.188;11.566;2023-11-22T07:27:17;5.50;78.63
64111;DHT22;50401;48.188;11.566;2023-11-22T07:29:43;5.51;78.30
64111;DHT22;50401;48.188;11.566;2023-11-22T07:32:09;5.50;78.06
64111;DHT22;50401;48.188;11.566;2023-11-22T07:34:36;5.45;78.22
64111;DHT22;50401;48.188;11.566;2023-11-22T07:37:02;5.44;78.97
64111;DHT22;50401;48.188;11.566;2023-11-22T07:39:27;5.51;78.62
64111;DHT22;50401;48.188;11.566;2023-11-22T07:41:54;5.51;78.97
64111;DHT22;50401;48.188;11.566;2023-11-22T07:44:20;5.48;78.79
64111;DHT22;50401;48.188;11.566;2023-11-22T07:46:46;5.58;78.48
64111;DHT22;50401;48.188;11.566;2023-11-22T07:49:11;5.58;78.15
64111;DHT22;50401;48.188;11.566;2023-11-22T07:51:39;5.50;78.44
64111;DHT22;50401;48.188;11.566;2023-11-22T07:54:04;5.45;78.66
64111;DHT22;50401;48.188;11.566;2023-11-22T07:56:31;5.41;78.54
64111;DHT22;50401;48.188;11.566;2023-11-22T07:58:58;5.27;78.16
64111;DHT22;50401;48.188;11.566;2023-11-22T08:01:24;5.16;78.67
64111;DHT22;50401;48.188;11.566;2023-11-22T08:03:51;5.18;79.18
64111;DHT22;50401;48.188;11.566;2023-11-22T08:06:17;5.27;79.00
64111;DHT22;50401;48.188;11.566;2023-11-22T08:08:43;5.27;78.70
64111;DHT22;50401;48.188;11.566;2023-11-22T08:11:11;5.24;78.55
64111;DHT22;50401;48.188;11.566;2023-11-22T08:13:43;5.20;78.53
64111;DHT22;50401;48.188;11.566;2023-11-22T08:16:10;5.20;78.43
64111;DHT22;50401;48.188;11.566;2023-11-22T08:18:36;5.20;78.70
64111;DHT22;50401;48.188;11.566;2023-11-22T08:21:01;5.24;78.78
64111;DHT22;50401;48.188;11.566;2023-11-22T08:23:27;5.23;78.86
64111;DHT22;50401;48.188;11.566;2023-11-22T08:25:52;5.22;78.69
64111;DHT22;50401;48.188;11.566;2023-11-22T08:28:18;5.30;78.52
64111;DHT22;50401;48.188;11.566;2023-11-22T08:30:44;5.13;78.27
64111;DHT22;50401;48.188;11.566;2023-11-22T08:33:09;5.12;78.55
64111;DHT22;50401;48.188;11.566;2023-11-22T08:35:35;5.16;78.84
64111;DHT22;50401;48.188;11.566;2023-11-22T08:38:01;5.09;79.02
64111;DHT22;50401;48.188;11.566;2023-11-22T08:40:28;4.96;79.71
64111;DHT22;50401;48.188;11.566;2023-11-22T08:42:53;4.99;80.37
64111;DHT22;50401;48.188;11.566;2023-11-22T08:45:19;5.00;80.27
64111;DHT22;50401;48.188;11.566;2023-11-22T08:47:45;5.00;80.44
64111;DHT22;50401;48.188;11.566;2023-11-22T08:50:11;5.10;80.46
64111;DHT22;50401;48.188;11.566;2023-11-22T08:52:38;5.23;80.86
64111;DHT22;50401;48.188;11.566;2023-11-22T08:55:05;5.36;80.43
64111;DHT22;50401;48.188;11.566;2023-11-22T08:57:35;5.38;80.09
64111;DHT22;50401;48.188;11.566;2023-11-22T09:00:00;5.34;80.48
64111;DHT22;50401;48.188;11.566;2023-11-22T09:02:32;5.40;80.47
64111;DHT22;50401;48.188;11.566;2023-11-22T09:04:58;5.37;79.09
64111;DHT22;50401;48.188;11.566;2023-11-22T09:07:23;5.38;79.58
64111;DHT22;50401;48.188;11.566;2023-11-22T09:09:49;5.28;79.68
64111;DHT22;50401;48.188;11.566;2023-11-22T09:12:17;5.37;79.47
64111;DHT22;50401;48.188;11.566;2023-11-22T09:14:45;5.41;79.61
64111;DHT22;50401;48.188;11.566;2023-11-22T09:17:10;5.43;79.60
64111;DHT22;50401;48.188;11.566;2023-11-22T09:19:35;5.52;79.61
64111;DHT22;50401;48.188;11.566;2023-11-22T09:22:01;5.44;78.91
64111;DHT22;50401;48.188;11.566;2023-11-22T09:24:27;5.43;79.41
64111;DHT22;50401;48.188;11.566;2023-11-22T09:26:52;5.48;79.93
64111;DHT22;50401;48.188;11.566;2023-11-22T09:29:18;5.44;79.37
64111;DHT22;50401;48.188;11.566;2023-11-22T09:31:43;5.52;79.71
64111;DHT22;50401;48.188;11.566;2023-11-22T09:34:11;5.54;80.00
64111;DHT22;50401;48.188;11.566;2023-11-22T09:36:36;5.43;78.76
64111;DHT22;50401;48.188;11.566;2023-11-22T09:39:02;5.36;78.62
64111;DHT22;50401;48.188;11.566;2023-11-22T09:41:28;5.34;78.89
64111;DHT22;50401;48.188;11.566;2023-11-22T09:43:54;5.37;79.19
64111;DHT22;50401;48.188;11.566;2023-11-22T09:46:22;5.31;79.02
64111;DHT22;50401;48.188;11.566;2023-11-22T09:48:49;5.28;78.96
64111;DHT22;50401;48.188;11.566;2023-11-22T09:51:27;5.34;79.41
64111;DHT22;50401;48.188;11.566;2023-11-22T09:54:00;5.45;79.40
64111;DHT22;50401;48.188;11.566;2023-11-22T09:56:32;5.48;79.00
64111;DHT22;50401;48.188;11.566;2023-11-22T09:58:59;5.50;78.13
64111;DHT22;50401;48.188;11.566;2023-11-22T10:01:27;5.54;77.99
64111;DHT22;50401;48.188;11.566;2023-11-22T10:04:13;5.62;78.33
64111;DHT22;50401;48.188;11.566;2023-11-22T10:06:38;5.61;78.06
64111;DHT22;50401;48.188;11.566;2023-11-22T10:09:05;5.47;77.03
64111;DHT22;50401;48.188;11.566;2023-11-22T10:11:33;5.40;77.07
64111;DHT22;50401;48.188;11.566;2023-11-22T10:13:58;5.34;76.99
64111;DHT22;50401;48.188;11.566;2023-11-22T10:16:24;5.28;76.51
64111;DHT22;50401;48.188;11.566;2023-11-22T10:18:49;5.34;76.82
64111;DHT22;50401;48.188;11.566;2023-11-22T10:21:25;5.28;76.56
64111;DHT22;50401;48.188;11.566;2023-11-22T10:24:02;5.36;77.87
64111;DHT22;50401;48.188;11.566;2023-11-22T10:26:28;5.45;77.78
64111;DHT22;50401;48.188;11.566;2023-11-22T10:28:55;5.59;77.25
64111;DHT22;50401;48.188;11.566;2023-11-22T10:31:22;5.72;77.01
64111;DHT22;50401;48.188;11.566;2023-11-22T10:34:02;5.68;76.65
64111;DHT22;50401;48.188;11.566;2023-11-22T10:36:31;5.79;76.11
64111;DHT22;50401;48.188;11.566;2023-11-22T10:38:56;5.75;75.43
64111;DHT22;50401;48.188;11.566;2023-11-22T10:41:23;5.68;75.03
64111;DHT22;50401;48.188;11.566;2023-11-22T10:43:51;5.65;74.99
64111;DHT22;50401;48.188;11.566;2023-11-22T10:46:16;5.66;75.83
64111;DHT22;50401;48.188;11.566;2023-11-22T10:48:42;5.65;75.25
64111;DHT22;50401;48.188;11.566;2023-11-22T10:51:12;5.69;75.63
64111;DHT22;50401;48.188;11.566;2023-11-22T10:53:43;5.72;75.40
64111;DHT22;50401;48.188;11.566;2023-11-22T10:56:20;5.71;75.36
64111;DHT22;50401;48.188;11.566;2023-11-22T10:58:55;5.80;75.99
64111;DHT22;50401;48.188;11.566;2023-11-22T11:01:24;5.72;75.28
64111;DHT22;50401;48.188;11.566;2023-11-22T11:06:26;5.78;76.04
64111;DHT22;50401;48.188;11.566;2023-11-22T11:08:59;5.73;76.08
64111;DHT22;50401;48.188;11.566;2023-11-22T11:11:25;5.76;75.87
64111;DHT22;50401;48.188;11.566;2023-11-22T11:13:52;5.72;76.06
64111;DHT22;50401;48.188;11.566;2023-11-22T11:16:19;5.71;75.40
64111;DHT22;50401;48.188;11.566;2023-11-22T11:18:44;5.61;75.12
64111;DHT22;50401;48.188;11.566;2023-11-22T11:21:10;5.66;75.13
64111;DHT22;50401;48.188;11.566;2023-11-22T11:23:39;5.54;74.73
64111;DHT22;50401;48.188;11.566;2023-11-22T11:26:18;5.61;74.39
64111;DHT22;50401;48.188;11.566;2023-11-22T11:28:47;5.56;73.92
64111;DHT22;50401;48.188;11.566;2023-11-22T11:31:14;5.63;74.38
64111;DHT22;50401;48.188;11.566;2023-11-22T11:36:28;5.59;74.60
64111;DHT22;50401;48.188;11.566;2023-11-22T11:38:58;5.66;74.25
64111;DHT22;50401;48.188;11.566;2023-11-22T11:41:27;5.66;74.05
64111;DHT22;50401;48.188;11.566;2023-11-22T11:43:53;5.65;73.78
64111;DHT22;50401;48.188;11.566;2023-11-22T11:46:18;5.72;74.03
64111;DHT22;50401;48.188;11.566;2023-11-22T11:48:46;5.73;74.71
64111;DHT22;50401;48.188;11.566;2023-11-22T11:51:15;5.76;74.31
64111;DHT22;50401;48.188;11.566;2023-11-22T11:53:42;5.63;74.32
64111;DHT22;50401;48.188;11.566;2023-11-22T11:56:08;5.61;74.87
64111;DHT22;50401;48.188;11.566;2023-11-22T11:58:34;5.52;74.80
64111;DHT22;50401;48.188;11.566;2023-11-22T12:00:59;5.48;74.27
64111;DHT22;50401;48.188;11.566;2023-11-22T12:03:25;5.54;74.53
64111;DHT22;50401;48.188;11.566;2023-11-22T12:05:50;5.54;75.21
64111;DHT22;50401;48.188;11.566;2023-11-22T12:08:16;5.54;75.42
64111;DHT22;50401;48.188;11.566;2023-11-22T12:10:42;5.59;74.84
64111;DHT22;50401;48.188;11.566;2023-11-22T12:13:07;5.65;75.10
64111;DHT22;50401;48.188;11.566;2023-11-22T12:15:34;5.68;74.95
64111;DHT22;50401;48.188;11.566;2023-11-22T12:18:00;5.73;74.69
64111;DHT22;50401;48.188;11.566;2023-11-22T12:20:26;5.72;74.26
64111;DHT22;50401;48.188;11.566;2023-11-22T12:22:56;5.73;74.53
64111;DHT22;50401;48.188;11.566;2023-11-22T12:25:21;5.72;74.87
64111;DHT22;50401;48.188;11.566;2023-11-22T12:27:47;5.78;74.93
64111;DHT22;50401;48.188;11.566;2023-11-22T12:33:02;5.71;74.73
64111;DHT22;50401;48.188;11.566;2023-11-22T12:35:28;5.66;74.30
64111;DHT22;50401;48.188;11.566;2023-11-22T12:37:53;5.56;74.45
64111;DHT22;50401;48.188;11.566;2023-11-22T12:40:20;5.54;74.51
64111;DHT22;50401;48.188;11.566;2023-11-22T12:42:50;5.44;75.15
64111;DHT22;50401;48.188;11.566;2023-11-22T12:45:34;5.36;74.61
64111;DHT22;50401;48.188;11.566;2023-11-22T12:48:22;5.31;74.20
64111;DHT22;50401;48.188;11.566;2023-11-22T12:50:49;5.34;74.38
64111;DHT22;50401;48.188;11.566;2023-11-22T12:53:18;5.34;74.79
64111;DHT22;50401;48.188;11.566;2023-11-22T12:55:47;5.30;74.28
64111;DHT22;50401;48.188;11.566;2023-11-22T12:58:14;5.27;74.69
64111;DHT22;50401;48.188;11.566;2023-11-22T13:00:40;5.27;75.11
64111;DHT22;50401;48.188;11.566;2023-11-22T13:03:09;5.27;74.63
64111;DHT22;50401;48.188;11.566;2023-11-22T13:05:43;5.26;74.89
64111;DHT22;50401;48.188;11.566;2023-11-22T13:08:09;5.31;74.43
64111;DHT22;50401;48.188;11.566;2023-11-22T13:10:45;5.22;73.67
64111;DHT22;50401;48.188;11.566;2023-11-22T13:13:18;5.12;73.17
64111;DHT22;50401;48.188;11.566;2023-11-22T13:15:44;5.18;73.68
64111;DHT22;50401;48.188;11.566;2023-11-22T13:18:10;5.26;73.89
64111;DHT22;50401;48.188;11.566;2023-11-22T13:20:35;5.28;73.98
64111;DHT22;50401;48.188;11.566;2023-11-22T13:23:01;5.22;74.69
64111;DHT22;50401;48.188;11.566;2023-11-22T13:25:28;5.28;75.06
64111;DHT22;50401;48.188;11.566;2023-11-22T13:27:53;5.30;74.70
64111;DHT22;50401;48.188;11.566;2023-11-22T13:30:21;5.33;74.61
64111;DHT22;50401;48.188;11.566;2023-11-22T13:32:50;5.40;74.90
64111;DHT22;50401;48.188;11.566;2023-11-22T13:35:17;5.44;74.88
64111;DHT22;50401;48.188;11.566;2023-11-22T13:37:47;5.50;74.84
64111;DHT22;50401;48.188;11.566;2023-11-22T13:40:14;5.43;74.38
64111;DHT22;50401;48.188;11.566;2023-11-22T13:42:42;5.41;74.99
64111;DHT22;50401;48.188;11.566;2023-11-22T13:45:09;5.40;74.94
64111;DHT22;50401;48.188;11.566;2023-11-22T13:47:34;5.31;74.63
64111;DHT22;50401;48.188;11.566;2023-11-22T13:50:00;5.27;74.93
64111;DHT22;50401;48.188;11.566;2023-11-22T13:52:25;5.43;75.10
64111;DHT22;50401;48.188;11.566;2023-11-22T13:54:50;5.44;75.19
64111;DHT22;50401;48.188;11.566;2023-11-22T13:57:20;5.31;75.80
64111;DHT22;50401;48.188;11.566;2023-11-22T13:59:45;5.38;75.20
64111;DHT22;50401;48.188;11.566;2023-11-22T14:02:11;5.36;75.19
64111;DHT22;50401;48.188;11.566;2023-11-22T14:04:36;5.41;75.48
64111;DHT22;50401;48.188;11.566;2023-11-22T14:07:01;5.40;75.52
64111;DHT22;50401;48.188;11.566;2023-11-22T14:09:27;5.33;75.97
64111;DHT22;50401;48.188;11.566;2023-11-22T14:11:52;5.37;75.22
64111;DHT22;50401;48.188;11.566;2023-11-22T14:14:18;5.50;75.31
64111;DHT22;50401;48.188;11.566;2023-11-22T14:16:44;5.50;74.87
64111;DHT22;50401;48.188;11.566;2023-11-22T14:19:11;5.47;74.91
64111;DHT22;50401;48.188;11.566;2023-11-22T14:21:36;5.48;74.61
64111;DHT22;50401;48.188;11.566;2023-11-22T14:24:02;5.48;74.40
64111;DHT22;50401;48.188;11.566;2023-11-22T14:26:27;5.54;73.83
64111;DHT22;50401;48.188;11.566;2023-11-22T14:28:52;5.51;73.87
64111;DHT22;50401;48.188;11.566;2023-11-22T14:31:18;5.48;74.34
64111;DHT22;50401;48.188;11.566;2023-11-22T14:33:43;5.38;74.18
64111;DHT22;50401;48.188;11.566;2023-11-22T14:36:09;5.45;73.89
64111;DHT22;50401;48.188;11.566;2023-11-22T14:38:34;5.48;74.01
64111;DHT22;50401;48.188;11.566;2023-11-22T14:41:00;5.48;74.08
64111;DHT22;50401;48.188;11.566;2023-11-22T14:43:26;5.44;74.02
64111;DHT22;50401;48.188;11.566;2023-11-22T14:45:51;5.38;73.96
64111;DHT22;50401;48.188;11.566;2023-11-22T14:48:17;5.33;73.23
64111;DHT22;50401;48.188;11.566;2023-11-22T14:50:43;5.36;73.62
64111;DHT22;50401;48.188;11.566;2023-11-22T14:53:09;5.34;73.60
64111;DHT22;50401;48.188;11.566;2023-11-22T14:55:34;5.36;73.92
64111;DHT22;50401;48.188;11.566;2023-11-22T14:58:04;5.36;73.84
64111;DHT22;50401;48.188;11.566;2023-11-22T15:00:31;5.30;73.55
64111;DHT22;50401;48.188;11.566;2023-11-22T15:02:56;5.27;73.62
64111;DHT22;50401;48.188;11.566;2023-11-22T15:05:22;5.37;74.31
64111;DHT22;50401;48.188;11.566;2023-11-22T15:07:48;5.41;73.88
64111;DHT22;50401;48.188;11.566;2023-11-22T15:10:20;5.38;73.71
64111;DHT22;50401;48.188;11.566;2023-11-22T15:12:45;5.41;73.26
64111;DHT22;50401;48.188;11.566;2023-11-22T15:15:11;5.38;73.69
64111;DHT22;50401;48.188;11.566;2023-11-22T15:17:37;5.40;73.71
64111;DHT22;50401;48.188;11.566;2023-11-22T15:20:04;5.34;74.00
64111;DHT22;50401;48.188;11.566;2023-11-22T15:22:30;5.37;74.20
64111;DHT22;50401;48.188;11.566;2023-11-22T15:24:55;5.16;75.07
64111;DHT22;50401;48.188;11.566;2023-11-22T15:27:21;5.22;75.10
64111;DHT22;50401;48.188;11.566;2023-11-22T15:29:46;5.22;75.16
64111;DHT22;50401;48.188;11.566;2023-11-22T15:32:11;5.28;74.91
64111;DHT22;50401;48.188;11.566;2023-11-22T15:34:39;5.28;74.84